This is the latest recevied weather packets stored in our database for station/object KQ4HEI. If no packets are shown the sender has not sent any weather packets the latest 10 day(s).
| Time | Temp. | Humidity | Pressure | Rain* | Wind** | Luminosity | Snow |
|---|---|---|---|---|---|---|---|
| 1777746692 | 21.11° C | 78% | 1011.2 hPa | 0 mm | - | - | - |
| 1777746092 | 20° C | 82% | 1011.4 hPa | 0 mm | - | - | - |
| 1777745491 | 20.56° C | 82% | 1011.5 hPa | 0 mm | - | - | - |
| 1777744892 | 18.33° C | 86% | 1011.5 hPa | 0 mm | - | - | - |
| 1777744292 | 17.78° C | 90% | 1011.5 hPa | 0 mm | - | - | - |
| 1777743692 | 17.78° C | 90% | 1011.5 hPa | 0 mm | - | - | - |
| 1777743092 | 17.78° C | 90% | 1011.4 hPa | 0 mm | - | - | - |
| 1777742492 | 17.22° C | 95% | 1011.7 hPa | 0 mm | - | - | - |
| 1777741893 | 16.67° C | 94% | 1011.7 hPa | 0 mm | - | - | - |
| 1777741291 | 16.11° C | 97% | 1011.7 hPa | 0 mm | - | - | - |
| 1777740691 | 16.11° C | 97% | 1011.7 hPa | 0 mm | - | - | - |
| 1777740092 | 15.56° C | 98% | 1011.5 hPa | 0 mm | - | - | - |
| 1777739492 | 16.11° C | 98% | 1011.4 hPa | 0 mm | - | - | - |
| 1777738892 | 16.11° C | 99% | 1011.5 hPa | 0 mm | - | - | - |
| 1777738292 | 16.67° C | 98% | 1011.4 hPa | 0 mm | - | - | - |
| 1777737691 | 15.56° C | 99% | 1011.4 hPa | 0 mm | - | - | - |
| 1777737091 | 14.44° C | 99% | 1011.4 hPa | 0 mm | - | - | - |
| 1777736492 | 13.89° C | 99% | 1011.6 hPa | 0 mm | - | - | - |
| 1777735892 | 13.89° C | 99% | 1012 hPa | 1.02 mm | - | - | - |
| 1777735295 | 13.89° C | 99% | 1011.6 hPa | 1.78 mm | - | - | - |
| 1777734692 | 13.89° C | 99% | 1011.7 hPa | 1.52 mm | - | - | - |
| 1777734092 | 13.89° C | 99% | 1011 hPa | 1.02 mm | - | - | - |
| 1777733492 | 13.89° C | 99% | 1010.4 hPa | 0.76 mm | - | - | - |
| 1777732892 | 13.89° C | 99% | 1010 hPa | 0 mm | - | - | - |
| 1777732292 | 13.89° C | 99% | 1010.4 hPa | 0 mm | - | - | - |
* Rain latest hour (hover to see other rain measurements)
** Current wind speed in m/s (hover to see current wind gust speed)